Purcell, OK

1:46 AM CDT on July 26, 2016 (GMT -0500)
Home | | Change Station

Elev 1122 ft 35.11 °N, 97.38 °W | Updated 1 minute ago

Heavy Rain
Heavy Rain
72.4 °F
Feels Like 72.4 °F
N
0.0
Wind Variable Wind from NE
Gusts 0.0 mph

Today
High -- | Low -- °F
--% Chance of Precip.
Yesterday
High -- | Low -- °F
Precip. -- in
Pressure 30.07 in
Visibility 5.0 miles
Clouds Scattered Clouds 500 ft
Mostly Cloudy 3200 ft
Overcast 4400 ft
Dew Point 71 °F
Humidity 95%
Rainfall 0.14 in
Snow Depth Not available.
6:34 AM 8:36 PM
Waning Gibbous, 58% visible
METAR KOUN 260635Z AUTO 01017G22KT 5SM +RA SCT005 BKN032 OVC044 22/22 A3007 RMK AO2 P0011 TSNO
Pressure 30.07 in
Visibility 5.0 miles
Clouds Scattered Clouds 500 ft
Mostly Cloudy 3200 ft
Overcast 4400 ft
Dew Point 71 °F
Humidity 95%
Rainfall 0.14 in
Snow Depth Not available.
6:34 AM 8:36 PM
Waning Gibbous, 58% visible
METAR KOUN 260635Z AUTO 01017G22KT 5SM +RA SCT005 BKN032 OVC044 22/22 A3007 RMK AO2 P0011 TSNO

10-Day Weather Forecast

Almanac

Astronomy

Jul. 26, 2016 Rise Set
Actual Time
Civil Twilight
Nautical Twilight
Astronomical Twilight
Moon
Length of Visible Light
Length of Day
Tomorrow will be .
, % of the Moon is Illuminated

Today's Extremes

State Highs State Lows

Community

WunderPhotos

Upload Photos

1,927,551 photos uploaded!

WunderBlog® & News

Nearby

Air Quality

  Air Quality AQ Index Pollutant
Not available.

Snow Depth

Station Depth Elevation

Earthquake Activity

City Distance Mag. Time & Date
Minimum magnitude displayed is 2.5.

Coastal Water Temperatures

Place Temperature

Stations

Nearby Weather Stations

Station Location Temp. Windchill Dew Point Humidity Wind Precip. Elev Updated Type
                   

Watches & Warnings

There are currently no watches in effect.